createdAt,value
2022-11-05T00:01:00.422Z,99.36
2022-11-05T00:02:23.550Z,99.96
2022-11-05T00:03:45.030Z,100.00
2022-11-05T00:05:06.573Z,100.00
2022-11-05T00:06:29.329Z,99.64
2022-11-05T00:07:59.431Z,99.62
2022-11-05T00:09:21.238Z,99.40
2022-11-05T00:10:28.209Z,99.59
2022-11-05T00:11:49.911Z,99.84
2022-11-05T00:13:17.309Z,100.00
2022-11-05T00:14:39.035Z,100.00
2022-11-05T00:16:00.562Z,99.47
2022-11-05T00:17:03.291Z,98.81
2022-11-05T00:18:06.290Z,98.47
2022-11-05T00:19:10.329Z,98.20
2022-11-05T00:20:16.002Z,98.33
2022-11-05T00:21:37.314Z,98.09
2022-11-05T00:22:58.708Z,98.15
2022-11-05T00:24:24.105Z,97.75
2022-11-05T00:25:30.337Z,98.31
2022-11-05T00:26:33.442Z,98.41
2022-11-05T00:27:36.318Z,98.32
2022-11-05T00:28:44.940Z,98.62
2022-11-05T00:29:47.814Z,98.59
2022-11-05T00:30:51.176Z,98.83
2022-11-05T00:31:54.101Z,99.07
2022-11-05T00:33:02.936Z,98.86
2022-11-05T00:34:05.983Z,98.92
2022-11-05T00:35:09.015Z,99.03
2022-11-05T00:36:12.020Z,99.17
2022-11-05T00:37:14.902Z,98.86
2022-11-05T00:39:26.252Z,98.67
2022-11-05T00:40:32.906Z,98.69
2022-11-05T00:41:35.768Z,98.86
2022-11-05T00:43:00.502Z,98.58
2022-11-05T00:44:22.024Z,98.38
2022-11-05T00:45:24.898Z,98.85
2022-11-05T00:46:27.657Z,99.26
2022-11-05T00:47:50.777Z,99.29
2022-11-05T00:49:12.105Z,99.23
2022-11-05T00:50:15.215Z,99.47
2022-11-05T00:51:18.029Z,99.59
2022-11-05T00:52:39.345Z,99.51
2022-11-05T00:53:42.193Z,99.47
2022-11-05T00:54:46.846Z,99.60
2022-11-05T00:55:49.680Z,100.00
2022-11-05T00:56:52.703Z,100.00
2022-11-05T00:57:56.709Z,99.87
2022-11-05T00:59:01.237Z,100.00
2022-11-05T01:00:05.953Z,100.00
2022-11-05T01:01:10.934Z,100.00
2022-11-05T01:02:13.950Z,100.00
2022-11-05T01:03:18.994Z,100.00
2022-11-05T01:04:21.936Z,99.94
2022-11-05T01:05:25.757Z,99.83
2022-11-05T01:06:28.616Z,99.87
2022-11-05T01:07:31.657Z,100.00
2022-11-05T01:08:40.897Z,100.00
2022-11-05T01:09:43.703Z,100.00
2022-11-05T01:10:49.674Z,100.00
2022-11-05T01:11:52.476Z,99.96
2022-11-05T01:12:55.592Z,100.00
2022-11-05T01:13:58.617Z,99.60
2022-11-05T01:15:02.052Z,99.21
2022-11-05T01:16:08.380Z,98.91
2022-11-05T01:17:14.713Z,98.70
2022-11-05T01:18:18.668Z,99.12
2022-11-05T01:19:21.680Z,99.19
2022-11-05T01:20:24.801Z,99.13
2022-11-05T01:21:27.897Z,98.69
2022-11-05T01:22:30.711Z,98.59
2022-11-05T01:23:33.922Z,98.76
2022-11-05T01:24:36.743Z,98.91
2022-11-05T01:25:39.702Z,99.09
2022-11-05T01:26:42.490Z,99.06
2022-11-05T01:27:45.667Z,99.49
2022-11-05T01:28:57.783Z,99.85
2022-11-05T01:30:00.729Z,100.00
2022-11-05T01:31:04.838Z,99.65
2022-11-05T01:32:07.700Z,99.23
2022-11-05T01:33:12.147Z,98.98
2022-11-05T01:34:15.156Z,99.24
2022-11-05T01:35:20.881Z,99.72
2022-11-05T01:36:23.874Z,99.71
2022-11-05T01:37:27.854Z,99.90
2022-11-05T01:38:30.712Z,99.85
2022-11-05T01:39:33.553Z,99.97
2022-11-05T01:40:36.517Z,100.00
2022-11-05T01:41:40.845Z,100.00
2022-11-05T01:42:44.129Z,100.00
2022-11-05T01:44:01.664Z,99.98
2022-11-05T01:45:07.520Z,99.77
2022-11-05T01:46:10.370Z,99.81
2022-11-05T01:47:26.270Z,100.00
2022-11-05T01:48:35.517Z,100.00
2022-11-05T01:49:38.360Z,100.00
2022-11-05T01:50:47.735Z,100.00
2022-11-05T01:51:56.152Z,100.00
2022-11-05T01:53:21.213Z,100.00
2022-11-05T01:54:29.995Z,100.00
2022-11-05T01:55:37.040Z,100.00
2022-11-05T01:56:58.369Z,100.00
2022-11-05T01:58:03.788Z,100.00
2022-11-05T01:59:16.992Z,100.00
2022-11-05T02:00:19.932Z,100.00
2022-11-05T02:01:23.660Z,100.00
2022-11-05T02:02:27.230Z,100.00
2022-11-05T02:03:30.907Z,100.00
2022-11-05T02:04:40.408Z,100.00
2022-11-05T02:05:43.774Z,100.00
2022-11-05T02:06:47.064Z,100.00
2022-11-05T02:07:51.197Z,99.67
2022-11-05T02:09:13.551Z,99.43
2022-11-05T02:10:18.371Z,99.55
2022-11-05T02:11:21.511Z,99.23
2022-11-05T02:12:24.666Z,99.59
2022-11-05T02:13:27.471Z,99.53
2022-11-05T02:14:30.417Z,99.10
2022-11-05T02:16:08.363Z,99.06
2022-11-05T02:17:23.169Z,99.42
2022-11-05T02:18:42.946Z,98.83
2022-11-05T02:20:16.562Z,98.77
2022-11-05T02:21:29.673Z,98.18
2022-11-05T02:22:55.341Z,98.29
2022-11-05T02:24:52.219Z,98.62
2022-11-05T02:26:34.641Z,98.92
2022-11-05T02:28:18.409Z,99.01
2022-11-05T02:29:47.656Z,98.77
2022-11-05T02:31:21.749Z,99.22
2022-11-05T02:32:30.572Z,99.51
2022-11-05T02:33:57.291Z,99.46
2022-11-05T02:35:21.740Z,99.70
2022-11-05T02:36:39.562Z,99.54
2022-11-05T02:38:07.543Z,99.87
2022-11-05T02:39:39.519Z,100.00
2022-11-05T02:41:00.039Z,100.00
2022-11-05T02:42:12.934Z,100.00
2022-11-05T02:43:31.399Z,99.95
2022-11-05T02:44:47.861Z,99.92
2022-11-05T02:46:09.477Z,100.00
2022-11-05T02:47:38.708Z,100.00
2022-11-05T02:49:04.720Z,99.62
2022-11-05T02:50:23.627Z,98.49
2022-11-05T02:51:26.383Z,98.45
2022-11-05T02:52:46.840Z,98.66
2022-11-05T02:53:59.097Z,99.06
2022-11-05T02:55:20.323Z,99.66
2022-11-05T02:56:31.474Z,100.00
2022-11-05T02:57:37.014Z,99.89
2022-11-05T02:58:39.912Z,99.92
2022-11-05T02:59:42.720Z,99.60
2022-11-05T03:00:53.892Z,99.69
2022-11-05T03:01:58.037Z,99.86
2022-11-05T03:03:01.559Z,100.00
2022-11-05T03:04:09.770Z,100.00
2022-11-05T03:05:13.865Z,100.00
2022-11-05T03:06:29.335Z,100.00
2022-11-05T03:08:06.999Z,100.00
2022-11-05T03:09:23.810Z,100.00
2022-11-05T03:11:11.737Z,100.00
2022-11-05T03:12:21.872Z,100.00
2022-11-05T03:13:52.681Z,100.00
2022-11-05T03:15:08.053Z,100.00
2022-11-05T03:16:21.877Z,100.00
2022-11-05T03:17:53.772Z,100.00
2022-11-05T03:19:30.309Z,99.98
2022-11-05T03:20:40.086Z,99.59
2022-11-05T03:21:48.455Z,99.99
2022-11-05T03:23:04.141Z,100.00
2022-11-05T03:24:17.970Z,100.00
2022-11-05T03:25:24.771Z,100.00
2022-11-05T03:26:31.902Z,99.68
2022-11-05T03:27:39.371Z,99.72
2022-11-05T03:28:48.629Z,99.94
2022-11-05T03:29:57.514Z,99.89
2022-11-05T03:31:04.216Z,100.00
2022-11-05T03:32:08.833Z,100.00
2022-11-05T03:33:20.926Z,99.68
2022-11-05T03:34:29.707Z,99.83
2022-11-05T03:35:38.860Z,99.62
2022-11-05T03:36:48.825Z,99.77
2022-11-05T03:37:57.003Z,99.82
2022-11-05T03:39:05.703Z,99.85
2022-11-05T03:40:12.509Z,99.55
2022-11-05T03:41:16.762Z,99.34
2022-11-05T03:42:26.067Z,99.45
2022-11-05T03:43:33.615Z,99.35
2022-11-05T03:44:41.271Z,99.40
2022-11-05T03:45:59.420Z,99.98
2022-11-05T03:47:07.698Z,99.40
2022-11-05T03:48:13.070Z,98.79
2022-11-05T03:49:26.668Z,99.00
2022-11-05T03:50:41.277Z,99.40
2022-11-05T03:51:53.673Z,100.00
2022-11-05T03:53:06.014Z,100.00
2022-11-05T03:54:13.021Z,99.70
2022-11-05T03:55:16.705Z,99.60
2022-11-05T03:56:49.791Z,99.07
2022-11-05T03:57:56.017Z,99.14
2022-11-05T03:59:01.295Z,99.71
2022-11-05T04:00:08.233Z,99.82
2022-11-05T04:01:11.453Z,99.34
2022-11-05T04:02:17.067Z,99.47
2022-11-05T04:03:19.986Z,99.60
2022-11-05T04:04:23.177Z,100.00
2022-11-05T04:05:26.054Z,99.53
2022-11-05T04:06:47.896Z,99.55
2022-11-05T04:08:14.041Z,99.73
2022-11-05T04:09:36.134Z,100.00
2022-11-05T04:11:07.637Z,100.00
2022-11-05T04:12:29.886Z,100.00
2022-11-05T04:13:34.266Z,100.00
2022-11-05T04:14:37.096Z,100.00
2022-11-05T04:15:58.339Z,100.00
2022-11-05T04:17:07.025Z,100.00
2022-11-05T04:18:09.819Z,100.00
2022-11-05T04:19:12.775Z,100.00
2022-11-05T04:20:34.189Z,100.00
2022-11-05T04:21:55.318Z,100.00
2022-11-05T04:23:24.897Z,100.00
2022-11-05T04:24:27.693Z,100.00
2022-11-05T04:25:30.630Z,100.00
2022-11-05T04:26:33.661Z,100.00
2022-11-05T04:27:37.045Z,100.00
2022-11-05T04:29:00.495Z,100.00
2022-11-05T04:30:19.404Z,100.00
2022-11-05T04:31:22.299Z,100.00
2022-11-05T04:32:25.149Z,100.00
2022-11-05T04:33:27.909Z,100.00
2022-11-05T04:34:30.880Z,100.00
2022-11-05T04:35:51.578Z,100.00
2022-11-05T04:36:55.147Z,100.00
2022-11-05T04:37:58.196Z,100.00
2022-11-05T04:39:01.004Z,100.00
2022-11-05T04:40:04.136Z,100.00
2022-11-05T04:41:14.866Z,100.00
2022-11-05T04:42:17.808Z,100.00
2022-11-05T04:43:21.015Z,100.00
2022-11-05T04:44:24.097Z,100.00
2022-11-05T04:45:29.351Z,100.00
2022-11-05T04:46:32.539Z,100.00
2022-11-05T04:47:35.398Z,100.00
2022-11-05T04:48:39.167Z,100.00
2022-11-05T04:49:42.117Z,100.00
2022-11-05T04:50:45.204Z,100.00
2022-11-05T04:51:48.031Z,100.00
2022-11-05T04:52:51.503Z,100.00
2022-11-05T04:53:54.752Z,99.99
2022-11-05T04:54:57.644Z,100.00
2022-11-05T04:56:11.265Z,100.00
2022-11-05T04:57:14.269Z,100.00
2022-11-05T04:58:18.138Z,100.00
2022-11-05T04:59:21.132Z,100.00
2022-11-05T05:00:24.786Z,100.00
2022-11-05T05:01:27.702Z,100.00
2022-11-05T05:02:32.245Z,100.00
2022-11-05T05:03:35.000Z,100.00
2022-11-05T05:04:37.944Z,100.00
2022-11-05T05:05:40.717Z,100.00
2022-11-05T05:06:43.855Z,100.00
2022-11-05T05:07:46.823Z,100.00
2022-11-05T05:08:51.702Z,100.00
2022-11-05T05:09:55.294Z,100.00
2022-11-05T05:11:05.377Z,100.00
2022-11-05T05:12:08.296Z,100.00
2022-11-05T05:13:12.371Z,100.00
2022-11-05T05:14:15.412Z,100.00
2022-11-05T05:15:18.567Z,100.00
2022-11-05T05:16:24.751Z,100.00
2022-11-05T05:17:27.761Z,100.00
2022-11-05T05:18:32.896Z,100.00
2022-11-05T05:19:55.764Z,100.00
2022-11-05T05:21:18.203Z,100.00
2022-11-05T05:22:21.247Z,100.00
2022-11-05T05:23:24.044Z,99.16
2022-11-05T05:24:26.961Z,99.19
2022-11-05T05:25:30.376Z,99.65
2022-11-05T05:26:33.308Z,99.94
2022-11-05T05:27:36.311Z,99.85
2022-11-05T05:28:41.084Z,99.62
2022-11-05T05:29:43.984Z,99.66
2022-11-05T05:30:46.797Z,100.00
2022-11-05T05:31:49.630Z,100.00
2022-11-05T05:32:52.437Z,99.87
2022-11-05T05:33:56.073Z,99.19
2022-11-05T05:34:59.004Z,99.36
2022-11-05T05:36:07.024Z,99.75
2022-11-05T05:37:12.868Z,99.39
2022-11-05T05:38:15.787Z,99.15
2022-11-05T05:39:18.703Z,99.62
2022-11-05T05:40:21.630Z,99.99
2022-11-05T05:41:24.705Z,99.73
2022-11-05T05:42:27.664Z,99.81
2022-11-05T05:43:32.516Z,99.93
2022-11-05T05:44:35.338Z,99.60
2022-11-05T05:45:38.186Z,99.10
2022-11-05T05:46:40.983Z,98.63
2022-11-05T05:47:44.070Z,98.44
2022-11-05T05:48:52.053Z,99.01
2022-11-05T05:49:55.078Z,99.39
2022-11-05T05:51:05.963Z,99.33
2022-11-05T05:52:08.852Z,99.29
2022-11-05T05:53:11.959Z,99.35
2022-11-05T05:54:15.158Z,99.61
2022-11-05T05:55:18.182Z,99.69
2022-11-05T05:56:21.335Z,99.81
2022-11-05T05:57:24.078Z,99.27
2022-11-05T05:58:39.012Z,99.34
2022-11-05T05:59:41.702Z,99.76
2022-11-05T06:00:44.861Z,100.00
2022-11-05T06:01:47.809Z,100.00
2022-11-05T06:02:50.711Z,100.00
2022-11-05T06:03:53.701Z,99.89
2022-11-05T06:04:56.475Z,98.80
2022-11-05T06:07:17.233Z,98.69
2022-11-05T06:08:20.910Z,99.25
2022-11-05T06:09:24.148Z,99.19
2022-11-05T06:10:27.087Z,98.93
2022-11-05T06:11:30.006Z,98.26
2022-11-05T06:12:33.250Z,98.15
2022-11-05T06:13:36.830Z,97.98
2022-11-05T06:14:42.781Z,97.88
2022-11-05T06:15:45.553Z,98.28
2022-11-05T06:16:48.713Z,98.75
2022-11-05T06:17:51.699Z,98.45
2022-11-05T06:18:55.003Z,98.60
2022-11-05T06:19:57.868Z,98.35
2022-11-05T06:21:04.965Z,98.01
2022-11-05T06:22:07.860Z,97.82
2022-11-05T06:23:10.856Z,98.27
2022-11-05T06:24:13.803Z,98.80
2022-11-05T06:25:16.712Z,99.18
2022-11-05T06:26:20.379Z,98.62
2022-11-05T06:27:26.936Z,98.81
2022-11-05T06:28:30.142Z,98.75
2022-11-05T06:29:33.900Z,98.08
2022-11-05T06:30:36.913Z,98.10
2022-11-05T06:31:39.705Z,98.40
2022-11-05T06:32:42.599Z,98.69
2022-11-05T06:33:45.365Z,98.88
2022-11-05T06:34:48.239Z,98.57
2022-11-05T06:35:51.322Z,97.92
2022-11-05T06:36:57.747Z,98.25
2022-11-05T06:38:03.447Z,98.52
2022-11-05T06:39:10.387Z,98.56
2022-11-05T06:40:13.275Z,98.65
2022-11-05T06:41:16.163Z,98.42
2022-11-05T06:42:19.511Z,98.12
2022-11-05T06:43:22.477Z,98.21
2022-11-05T06:44:25.344Z,98.86
2022-11-05T06:45:28.250Z,99.00
2022-11-05T06:46:32.968Z,98.86
2022-11-05T06:47:35.776Z,98.75
2022-11-05T06:48:40.681Z,98.90
2022-11-05T06:49:49.391Z,98.90
2022-11-05T06:50:52.265Z,98.50
2022-11-05T06:51:55.121Z,98.67
2022-11-05T06:52:59.907Z,98.82
2022-11-05T06:54:05.948Z,99.11
2022-11-05T06:55:09.431Z,99.38
2022-11-05T06:56:12.452Z,99.82
2022-11-05T06:57:15.636Z,99.86
2022-11-05T06:58:18.580Z,99.13
2022-11-05T06:59:21.441Z,99.29
2022-11-05T07:00:24.796Z,99.04
2022-11-05T07:01:27.664Z,98.97
2022-11-05T07:02:30.794Z,98.69
2022-11-05T07:03:33.612Z,98.70
2022-11-05T07:04:40.003Z,98.68
2022-11-05T07:05:48.647Z,98.95
2022-11-05T07:06:51.577Z,99.34
2022-11-05T07:07:54.374Z,99.50
2022-11-05T07:08:57.219Z,99.67
2022-11-05T07:10:00.034Z,99.20
2022-11-05T07:11:03.160Z,97.94
2022-11-05T07:12:07.092Z,97.22
2022-11-05T07:13:13.244Z,97.46
2022-11-05T07:14:16.204Z,97.66
2022-11-05T07:15:19.157Z,97.98
2022-11-05T07:16:22.172Z,98.19
2022-11-05T07:17:25.243Z,97.59
2022-11-05T07:18:28.006Z,97.31
2022-11-05T07:19:30.853Z,97.18
2022-11-05T07:20:34.653Z,97.52
2022-11-05T07:21:37.557Z,98.24
2022-11-05T07:22:40.459Z,98.79
2022-11-05T07:23:43.452Z,99.13
2022-11-05T07:24:47.527Z,99.29
2022-11-05T07:25:50.552Z,99.33
2022-11-05T07:26:53.473Z,99.07
2022-11-05T07:27:56.433Z,98.93
2022-11-05T07:28:59.510Z,98.93
2022-11-05T07:30:02.534Z,98.82
2022-11-05T07:31:06.394Z,99.10
2022-11-05T07:32:09.210Z,98.56
2022-11-05T07:33:15.761Z,97.99
2022-11-05T07:34:18.441Z,98.19
2022-11-05T07:35:21.479Z,98.45
2022-11-05T07:36:24.395Z,98.46
2022-11-05T07:37:27.530Z,98.50
2022-11-05T07:38:35.017Z,98.65
2022-11-05T07:39:38.054Z,98.84
2022-11-05T07:40:40.878Z,99.02
2022-11-05T07:41:43.781Z,98.65
2022-11-05T07:42:51.592Z,97.17
2022-11-05T07:43:54.453Z,97.26
2022-11-05T07:45:00.978Z,96.76
2022-11-05T07:46:03.773Z,97.08
2022-11-05T07:47:06.570Z,97.50
2022-11-05T07:48:10.211Z,96.73
2022-11-05T07:49:13.211Z,95.84
2022-11-05T07:50:18.069Z,94.78
2022-11-05T07:51:20.985Z,95.24
2022-11-05T07:52:23.865Z,95.94
2022-11-05T07:53:26.747Z,96.29
2022-11-05T07:54:29.708Z,96.18
2022-11-05T07:55:32.898Z,96.11
2022-11-05T07:56:39.338Z,96.46
2022-11-05T07:57:50.295Z,96.04
2022-11-05T07:58:53.889Z,96.28
2022-11-05T07:59:56.636Z,96.77
2022-11-05T08:00:59.734Z,96.96
2022-11-05T08:02:02.780Z,97.20
2022-11-05T08:03:13.236Z,97.29
2022-11-05T08:04:16.550Z,96.61
2022-11-05T08:05:19.480Z,96.64
2022-11-05T08:06:22.830Z,96.81
2022-11-05T08:07:26.172Z,96.71
2022-11-05T08:08:30.812Z,97.03
2022-11-05T08:09:33.734Z,96.71
2022-11-05T08:10:37.546Z,95.59
2022-11-05T08:11:40.314Z,95.50
2022-11-05T08:12:43.225Z,95.20
2022-11-05T08:13:46.106Z,95.36
2022-11-05T08:14:48.931Z,95.94
2022-11-05T08:15:51.767Z,96.37
2022-11-05T08:16:54.634Z,96.37
2022-11-05T08:18:00.322Z,96.37
2022-11-05T08:19:04.934Z,95.94
2022-11-05T08:20:08.547Z,95.39
2022-11-05T08:21:11.681Z,95.27
2022-11-05T08:22:14.478Z,95.44
2022-11-05T08:23:17.336Z,94.83
2022-11-05T08:24:20.370Z,94.99
2022-11-05T08:25:23.770Z,95.07
2022-11-05T08:26:26.574Z,95.56
2022-11-05T08:27:29.472Z,95.51
2022-11-05T08:28:32.326Z,95.12
2022-11-05T08:29:35.161Z,94.34
2022-11-05T08:30:38.278Z,94.77
2022-11-05T08:31:41.013Z,95.37
2022-11-05T08:32:43.777Z,95.53
2022-11-05T08:33:46.730Z,95.34
2022-11-05T08:34:52.791Z,94.88
2022-11-05T08:35:55.598Z,94.75
2022-11-05T08:37:01.139Z,94.44
2022-11-05T08:38:06.462Z,94.11
2022-11-05T08:39:12.925Z,93.86
2022-11-05T08:40:19.701Z,93.51
2022-11-05T08:41:22.456Z,92.05
2022-11-05T08:42:25.454Z,90.93
2022-11-05T08:43:28.305Z,91.89
2022-11-05T08:44:31.110Z,92.35
2022-11-05T08:45:35.236Z,93.08
2022-11-05T08:46:41.548Z,93.47
2022-11-05T08:47:44.625Z,93.35
2022-11-05T08:48:47.505Z,92.96
2022-11-05T08:49:50.705Z,91.58
2022-11-05T08:50:53.672Z,91.26
2022-11-05T08:51:56.399Z,92.12
2022-11-05T08:52:59.302Z,93.09
2022-11-05T08:54:02.172Z,92.82
2022-11-05T08:55:08.877Z,92.64
2022-11-05T08:56:11.744Z,92.33
2022-11-05T08:57:14.582Z,92.63
2022-11-05T08:58:18.092Z,92.79
2022-11-05T08:59:21.089Z,93.03
2022-11-05T09:00:24.429Z,93.33
2022-11-05T09:01:27.504Z,93.16
2022-11-05T09:02:31.260Z,93.23
2022-11-05T09:03:34.328Z,94.03
2022-11-05T09:04:37.158Z,93.50
2022-11-05T09:05:41.469Z,93.41
2022-11-05T09:06:45.159Z,93.58
2022-11-05T09:07:48.067Z,93.62
2022-11-05T09:08:50.967Z,93.64
2022-11-05T09:09:53.736Z,93.34
2022-11-05T09:10:57.077Z,92.63
2022-11-05T09:12:12.287Z,91.88
2022-11-05T09:13:19.242Z,92.21
2022-11-05T09:14:22.443Z,91.63
2022-11-05T09:15:25.467Z,91.18
2022-11-05T09:16:28.614Z,91.90
2022-11-05T09:17:31.552Z,92.49
2022-11-05T09:18:35.296Z,92.62
2022-11-05T09:19:40.041Z,92.42
2022-11-05T09:20:43.740Z,92.65
2022-11-05T09:21:46.632Z,92.62
2022-11-05T09:22:49.537Z,91.42
2022-11-05T09:23:52.439Z,91.01
2022-11-05T09:24:55.406Z,90.33
2022-11-05T09:25:58.193Z,91.15
2022-11-05T09:27:00.992Z,91.57
2022-11-05T09:28:16.475Z,91.49
2022-11-05T09:29:23.019Z,91.06
2022-11-05T09:30:26.360Z,90.74
2022-11-05T09:31:29.170Z,90.44
2022-11-05T09:32:32.811Z,90.35
2022-11-05T09:33:37.990Z,90.79
2022-11-05T09:34:41.970Z,90.49
2022-11-05T09:35:45.749Z,90.76
2022-11-05T09:36:48.569Z,91.37
2022-11-05T09:37:54.515Z,91.97
2022-11-05T09:38:59.702Z,91.93
2022-11-05T09:40:02.472Z,90.57
2022-11-05T09:41:12.160Z,89.79
2022-11-05T09:42:19.824Z,89.96
2022-11-05T09:43:31.782Z,90.58
2022-11-05T09:44:52.930Z,90.50
2022-11-05T09:46:01.288Z,91.17
2022-11-05T09:47:11.574Z,91.95
2022-11-05T09:48:18.165Z,92.61
2022-11-05T09:49:40.154Z,93.04
2022-11-05T09:50:46.487Z,93.10
2022-11-05T09:51:49.412Z,92.36
2022-11-05T09:52:52.270Z,91.94
2022-11-05T09:53:55.471Z,90.64
2022-11-05T09:54:58.725Z,90.75
2022-11-05T09:56:01.627Z,91.28
2022-11-05T09:57:08.294Z,91.67
2022-11-05T09:58:23.201Z,91.52
2022-11-05T09:59:53.926Z,91.68
2022-11-05T10:00:58.618Z,91.26
2022-11-05T10:02:39.209Z,90.54
2022-11-05T10:03:51.860Z,91.03
2022-11-05T10:04:58.974Z,91.24
2022-11-05T10:06:08.843Z,90.23
2022-11-05T10:07:17.649Z,89.89
2022-11-05T10:08:24.752Z,89.81
2022-11-05T10:09:38.132Z,89.54
2022-11-05T10:10:45.704Z,89.45
2022-11-05T10:12:03.095Z,90.11
2022-11-05T10:13:18.360Z,90.24
2022-11-05T10:14:34.135Z,90.13
2022-11-05T10:15:46.679Z,90.81
2022-11-05T10:17:05.838Z,90.47
2022-11-05T10:18:33.272Z,90.53
2022-11-05T10:19:49.898Z,90.67
2022-11-05T10:20:52.919Z,91.40
2022-11-05T10:22:11.163Z,90.76
2022-11-05T10:23:19.609Z,91.04
2022-11-05T10:24:24.249Z,91.19
2022-11-05T10:25:32.105Z,89.06
2022-11-05T10:26:35.010Z,89.32
2022-11-05T10:27:38.506Z,89.68
2022-11-05T10:28:44.249Z,89.91
2022-11-05T10:29:48.473Z,90.16
2022-11-05T10:30:57.620Z,90.43
2022-11-05T10:32:05.815Z,88.89
2022-11-05T10:33:10.422Z,89.19
2022-11-05T10:34:18.160Z,89.69
2022-11-05T10:35:24.584Z,90.21
2022-11-05T10:36:33.887Z,89.91
2022-11-05T10:37:40.871Z,89.38
2022-11-05T10:38:44.137Z,89.35
2022-11-05T10:39:46.967Z,89.84
2022-11-05T10:41:00.672Z,89.57
2022-11-05T10:42:38.534Z,89.50
2022-11-05T10:43:49.546Z,89.43
2022-11-05T10:45:17.005Z,87.80
2022-11-05T10:46:36.636Z,87.99
2022-11-05T10:47:53.287Z,88.16
2022-11-05T10:49:42.966Z,88.75
2022-11-05T10:50:46.151Z,88.41
2022-11-05T10:51:57.801Z,88.67
2022-11-05T10:53:12.972Z,88.60
2022-11-05T10:54:23.228Z,88.59
2022-11-05T10:55:33.995Z,87.92
2022-11-05T10:56:39.093Z,88.40
2022-11-05T10:57:42.154Z,89.02
2022-11-05T10:58:56.832Z,89.22
2022-11-05T11:00:16.887Z,89.28
2022-11-05T11:01:20.200Z,89.07
2022-11-05T11:02:27.208Z,88.63
2022-11-05T11:03:38.092Z,88.06
2022-11-05T11:04:41.273Z,85.81
2022-11-05T11:05:44.150Z,85.48
2022-11-05T11:06:53.012Z,86.89
2022-11-05T11:07:58.819Z,87.32
2022-11-05T11:09:10.807Z,87.28
2022-11-05T11:10:24.737Z,86.71
2022-11-05T11:11:33.692Z,86.12
2022-11-05T11:12:42.977Z,85.74
2022-11-05T11:13:52.441Z,86.24
2022-11-05T11:15:02.283Z,86.53
2022-11-05T11:16:37.112Z,86.58
2022-11-05T11:17:40.063Z,85.39
2022-11-05T11:18:44.053Z,85.38
2022-11-05T11:19:48.817Z,86.00
2022-11-05T11:21:14.625Z,86.41
2022-11-05T11:22:20.975Z,86.20
2022-11-05T11:23:23.910Z,86.21
2022-11-05T11:24:32.489Z,86.46
2022-11-05T11:25:53.587Z,86.79
2022-11-05T11:27:03.454Z,86.97
2022-11-05T11:28:14.437Z,84.75
2022-11-05T11:29:30.061Z,84.16
2022-11-05T11:30:34.110Z,84.27
2022-11-05T11:31:40.030Z,85.33
2022-11-05T11:32:43.275Z,86.15
2022-11-05T11:33:49.504Z,86.31
2022-11-05T11:34:54.718Z,86.78
2022-11-05T11:35:58.569Z,86.26
2022-11-05T11:37:09.305Z,86.24
2022-11-05T11:38:16.063Z,85.05
2022-11-05T11:39:30.813Z,83.78
2022-11-05T11:40:37.539Z,83.60
2022-11-05T11:41:43.083Z,83.88
2022-11-05T11:42:50.846Z,84.69
2022-11-05T11:43:59.809Z,84.89
2022-11-05T11:45:45.018Z,84.38
2022-11-05T11:46:55.248Z,83.85
2022-11-05T11:47:58.322Z,83.61
2022-11-05T11:49:02.749Z,84.75
2022-11-05T11:50:05.960Z,84.27
2022-11-05T11:51:38.199Z,84.15
2022-11-05T11:52:41.116Z,84.57
2022-11-05T11:53:44.356Z,85.28
2022-11-05T11:54:50.837Z,85.43
2022-11-05T11:56:21.041Z,85.51
2022-11-05T11:57:29.856Z,84.70
2022-11-05T11:58:49.289Z,83.64
2022-11-05T12:00:14.637Z,84.17
2022-11-05T12:01:39.688Z,84.92
2022-11-05T12:02:47.887Z,85.63
2022-11-05T12:04:12.626Z,84.31
2022-11-05T12:05:31.473Z,85.26
2022-11-05T12:06:47.411Z,85.17
2022-11-05T12:08:07.144Z,85.35
2022-11-05T12:09:51.463Z,85.54
2022-11-05T12:11:13.527Z,84.93
2022-11-05T12:12:20.664Z,84.28
2022-11-05T12:13:23.447Z,85.21
2022-11-05T12:14:46.736Z,85.01
2022-11-05T12:15:53.447Z,84.42
2022-11-05T12:17:38.173Z,84.23
2022-11-05T12:18:56.112Z,83.71
2022-11-05T12:20:23.232Z,83.69
2022-11-05T12:21:53.131Z,84.69
2022-11-05T12:22:56.293Z,83.16
2022-11-05T12:24:22.035Z,82.78
2022-11-05T12:25:33.880Z,83.58
2022-11-05T12:26:56.009Z,83.52
2022-11-05T12:28:20.252Z,83.68
2022-11-05T12:29:47.973Z,83.68
2022-11-05T12:31:10.402Z,84.18
2022-11-05T12:32:31.004Z,83.47
2022-11-05T12:33:47.012Z,83.36
2022-11-05T12:35:04.778Z,83.20
2022-11-05T12:36:10.579Z,83.47
2022-11-05T12:37:34.866Z,83.72
2022-11-05T12:39:05.185Z,84.11
2022-11-05T12:40:21.646Z,83.90
2022-11-05T12:41:39.309Z,81.80
2022-11-05T12:42:57.978Z,82.17
2022-11-05T12:44:12.886Z,82.69
2022-11-05T12:45:18.694Z,82.13
2022-11-05T12:46:27.399Z,83.19
2022-11-05T12:47:54.386Z,82.68
2022-11-05T12:49:15.756Z,82.43
2022-11-05T12:50:44.799Z,83.03
2022-11-05T12:51:56.400Z,82.03
2022-11-05T12:53:01.810Z,81.88
2022-11-05T12:54:16.764Z,81.60
2022-11-05T12:55:23.671Z,82.46
2022-11-05T12:56:49.181Z,82.88
2022-11-05T12:58:08.787Z,83.11
2022-11-05T12:59:24.704Z,83.56
2022-11-05T13:00:30.298Z,83.82
2022-11-05T13:01:42.034Z,83.67
2022-11-05T13:03:22.766Z,83.67
2022-11-05T13:04:53.619Z,82.65
2022-11-05T13:06:14.557Z,82.02
2022-11-05T13:07:28.636Z,81.78
2022-11-05T13:09:02.282Z,81.13
2022-11-05T13:10:21.035Z,81.73
2022-11-05T13:11:40.055Z,82.16
2022-11-05T13:12:44.783Z,81.73
2022-11-05T13:14:02.224Z,81.87
2022-11-05T13:15:28.243Z,82.40
2022-11-05T13:16:36.373Z,81.22
2022-11-05T13:17:44.190Z,81.00
2022-11-05T13:18:56.138Z,80.85
2022-11-05T13:20:19.481Z,81.51
2022-11-05T13:21:25.831Z,82.13
2022-11-05T13:23:04.141Z,82.37
2022-11-05T13:24:27.595Z,82.64
2022-11-05T13:25:35.800Z,80.98
2022-11-05T13:27:01.651Z,81.51
2022-11-05T13:28:38.034Z,82.03
2022-11-05T13:29:50.620Z,81.67
2022-11-05T13:30:58.438Z,81.10
2022-11-05T13:32:24.850Z,81.23
2022-11-05T13:33:54.872Z,80.67
2022-11-05T13:34:59.840Z,81.33
2022-11-05T13:36:25.138Z,81.76
2022-11-05T13:38:00.575Z,81.64
2022-11-05T13:39:26.576Z,80.40
2022-11-05T13:40:56.578Z,81.74
2022-11-05T13:42:34.481Z,81.93
2022-11-05T13:43:56.529Z,82.11
2022-11-05T13:45:09.263Z,82.06
2022-11-05T13:46:30.312Z,82.65
2022-11-05T13:47:36.671Z,82.72
2022-11-05T13:48:49.141Z,82.42
2022-11-05T13:50:26.058Z,82.68
2022-11-05T13:51:50.276Z,83.35
2022-11-05T13:53:32.363Z,83.73
2022-11-05T13:55:18.268Z,83.85
2022-11-05T13:56:58.350Z,83.33
2022-11-05T13:58:44.959Z,82.74
2022-11-05T14:00:24.879Z,82.94
2022-11-05T14:01:36.782Z,82.89
2022-11-05T14:03:02.155Z,83.33
2022-11-05T14:04:06.511Z,82.56
2022-11-05T14:05:31.697Z,82.67
2022-11-05T14:06:36.749Z,83.28
2022-11-05T14:07:47.643Z,82.51
2022-11-05T14:08:51.541Z,82.32
2022-11-05T14:10:16.016Z,82.80
2022-11-05T14:11:28.176Z,82.68
2022-11-05T14:12:34.813Z,82.92
2022-11-05T14:13:42.815Z,82.95
2022-11-05T14:15:00.840Z,82.54
2022-11-05T14:16:21.686Z,82.72
2022-11-05T14:17:33.766Z,83.38
2022-11-05T14:18:47.371Z,83.42
2022-11-05T14:20:02.960Z,83.38
2022-11-05T14:21:26.374Z,83.63
2022-11-05T14:22:33.222Z,83.79
2022-11-05T14:23:41.037Z,82.75
2022-11-05T14:24:45.944Z,83.30
2022-11-05T14:25:51.657Z,82.46
2022-11-05T14:27:01.152Z,82.47
2022-11-05T14:28:30.295Z,82.96
2022-11-05T14:29:39.707Z,83.29
2022-11-05T14:30:46.098Z,82.62
2022-11-05T14:32:08.855Z,82.46
2022-11-05T14:33:32.420Z,82.89
2022-11-05T14:34:44.040Z,82.58
2022-11-05T14:35:47.642Z,82.10
2022-11-05T14:37:12.933Z,82.51
2022-11-05T14:38:26.405Z,83.02
2022-11-05T14:39:32.159Z,83.51
2022-11-05T14:40:39.693Z,82.32
2022-11-05T14:42:03.438Z,82.75
2022-11-05T14:43:15.959Z,83.19
2022-11-05T14:44:20.095Z,82.42
2022-11-05T14:45:32.460Z,82.91
2022-11-05T14:46:44.057Z,81.99
2022-11-05T14:47:53.323Z,81.80
2022-11-05T14:49:09.097Z,82.42
2022-11-05T14:50:32.332Z,83.18
2022-11-05T14:51:39.143Z,82.89
2022-11-05T14:52:52.503Z,82.40
2022-11-05T14:54:14.821Z,82.74
2022-11-05T14:55:35.572Z,82.80
2022-11-05T14:56:55.845Z,82.60
2022-11-05T14:58:06.232Z,82.81